sensor_id;sensor_type;location;lat;lon;timestamp;pressure;altitude;pressure_sealevel;temperature;humidity
75136;BME280;63707;52.212;9.540;2023-11-21T00:02:12;99413.72;;;6.06;100.00
75136;BME280;63707;52.212;9.540;2023-11-21T00:04:38;99413.34;;;6.09;100.00
75136;BME280;63707;52.212;9.540;2023-11-21T00:07:03;99415.47;;;6.14;100.00
75136;BME280;63707;52.212;9.540;2023-11-21T00:09:29;99416.78;;;6.18;100.00
75136;BME280;63707;52.212;9.540;2023-11-21T00:11:54;99423.66;;;6.20;100.00
75136;BME280;63707;52.212;9.540;2023-11-21T00:14:20;99422.69;;;6.28;100.00
75136;BME280;63707;52.212;9.540;2023-11-21T00:16:45;99426.88;;;6.30;100.00
75136;BME280;63707;52.212;9.540;2023-11-21T00:19:12;99426.03;;;6.30;100.00
75136;BME280;63707;52.212;9.540;2023-11-21T00:21:38;99425.59;;;6.26;100.00
75136;BME280;63707;52.212;9.540;2023-11-21T00:24:04;99426.88;;;6.30;100.00
75136;BME280;63707;52.212;9.540;2023-11-21T00:26:29;99424.16;;;6.30;100.00
75136;BME280;63707;52.212;9.540;2023-11-21T00:29:01;99423.78;;;6.34;100.00
75136;BME280;63707;52.212;9.540;2023-11-21T00:31:27;99427.72;;;6.31;100.00
75136;BME280;63707;52.212;9.540;2023-11-21T00:33:52;99425.00;;;6.31;100.00
75136;BME280;63707;52.212;9.540;2023-11-21T00:36:20;99421.25;;;6.32;100.00
75136;BME280;63707;52.212;9.540;2023-11-21T00:38:46;99426.69;;;6.32;100.00
75136;BME280;63707;52.212;9.540;2023-11-21T00:41:13;99425.00;;;6.31;100.00
75136;BME280;63707;52.212;9.540;2023-11-21T00:43:38;99425.41;;;6.28;100.00
75136;BME280;63707;52.212;9.540;2023-11-21T00:46:04;99424.56;;;6.27;100.00
75136;BME280;63707;52.212;9.540;2023-11-21T00:48:32;99426.44;;;6.27;100.00
75136;BME280;63707;52.212;9.540;2023-11-21T00:50:57;99427.84;;;6.23;100.00
75136;BME280;63707;52.212;9.540;2023-11-21T00:53:24;99434.94;;;6.24;100.00
75136;BME280;63707;52.212;9.540;2023-11-21T00:55:50;99427.19;;;6.21;100.00
75136;BME280;63707;52.212;9.540;2023-11-21T00:58:17;99438.66;;;6.23;100.00
75136;BME280;63707;52.212;9.540;2023-11-21T01:00:43;99448.84;;;6.21;100.00
75136;BME280;63707;52.212;9.540;2023-11-21T01:03:09;99445.56;;;6.25;100.00
75136;BME280;63707;52.212;9.540;2023-11-21T01:05:34;99446.59;;;6.24;100.00
75136;BME280;63707;52.212;9.540;2023-11-21T01:08:00;99452.00;;;6.24;100.00
75136;BME280;63707;52.212;9.540;2023-11-21T01:10:27;99450.31;;;6.23;100.00
75136;BME280;63707;52.212;9.540;2023-11-21T01:12:52;99453.59;;;6.19;100.00
75136;BME280;63707;52.212;9.540;2023-11-21T01:15:18;99452.97;;;6.17;100.00
75136;BME280;63707;52.212;9.540;2023-11-21T01:17:43;99452.69;;;6.12;100.00
75136;BME280;63707;52.212;9.540;2023-11-21T01:20:09;99460.25;;;6.16;100.00
75136;BME280;63707;52.212;9.540;2023-11-21T01:22:38;99461.53;;;6.20;100.00
75136;BME280;63707;52.212;9.540;2023-11-21T01:25:04;99461.91;;;6.17;100.00
75136;BME280;63707;52.212;9.540;2023-11-21T01:27:34;99462.81;;;6.24;100.00
75136;BME280;63707;52.212;9.540;2023-11-21T01:29:59;99472.03;;;6.30;100.00
75136;BME280;63707;52.212;9.540;2023-11-21T01:32:25;99467.50;;;6.37;100.00
75136;BME280;63707;52.212;9.540;2023-11-21T01:34:51;99465.66;;;6.38;100.00
75136;BME280;63707;52.212;9.540;2023-11-21T01:37:16;99462.53;;;6.41;100.00
75136;BME280;63707;52.212;9.540;2023-11-21T01:39:42;99462.34;;;6.42;100.00
75136;BME280;63707;52.212;9.540;2023-11-21T01:42:10;99473.38;;;6.41;100.00
75136;BME280;63707;52.212;9.540;2023-11-21T01:44:37;99474.91;;;6.50;100.00
75136;BME280;63707;52.212;9.540;2023-11-21T01:47:03;99470.34;;;6.50;100.00
75136;BME280;63707;52.212;9.540;2023-11-21T01:49:30;99469.69;;;6.48;100.00
75136;BME280;63707;52.212;9.540;2023-11-21T01:51:56;99477.16;;;6.46;100.00
75136;BME280;63707;52.212;9.540;2023-11-21T01:54:22;99477.16;;;6.46;100.00
75136;BME280;63707;52.212;9.540;2023-11-21T01:56:47;99473.19;;;6.42;100.00
75136;BME280;63707;52.212;9.540;2023-11-21T01:59:18;99476.91;;;6.41;100.00
75136;BME280;63707;52.212;9.540;2023-11-21T02:01:46;99477.94;;;6.40;100.00
75136;BME280;63707;52.212;9.540;2023-11-21T02:04:12;99474.41;;;6.40;100.00
75136;BME280;63707;52.212;9.540;2023-11-21T02:06:38;99475.88;;;6.42;100.00
75136;BME280;63707;52.212;9.540;2023-11-21T02:09:04;99476.72;;;6.43;100.00
75136;BME280;63707;52.212;9.540;2023-11-21T02:11:30;99467.13;;;6.40;100.00
75136;BME280;63707;52.212;9.540;2023-11-21T02:13:55;99484.19;;;6.41;100.00
75136;BME280;63707;52.212;9.540;2023-11-21T02:16:21;99481.28;;;6.42;100.00
75136;BME280;63707;52.212;9.540;2023-11-21T02:18:48;99481.75;;;6.46;100.00
75136;BME280;63707;52.212;9.540;2023-11-21T02:21:14;99478.59;;;6.42;100.00
75136;BME280;63707;52.212;9.540;2023-11-21T02:23:40;99487.53;;;6.43;100.00
75136;BME280;63707;52.212;9.540;2023-11-21T02:26:09;99487.34;;;6.44;100.00
75136;BME280;63707;52.212;9.540;2023-11-21T02:28:35;99491.28;;;6.42;100.00
75136;BME280;63707;52.212;9.540;2023-11-21T02:31:00;99494.38;;;6.39;100.00
75136;BME280;63707;52.212;9.540;2023-11-21T02:33:28;99494.56;;;6.37;100.00
75136;BME280;63707;52.212;9.540;2023-11-21T02:35:54;99490.19;;;6.36;100.00
75136;BME280;63707;52.212;9.540;2023-11-21T02:38:20;99499.34;;;6.35;100.00
75136;BME280;63707;52.212;9.540;2023-11-21T02:40:48;99490.38;;;6.35;100.00
75136;BME280;63707;52.212;9.540;2023-11-21T02:43:14;99486.59;;;6.29;100.00
75136;BME280;63707;52.212;9.540;2023-11-21T02:45:39;99481.38;;;6.27;100.00
75136;BME280;63707;52.212;9.540;2023-11-21T02:48:07;99482.00;;;6.29;100.00
75136;BME280;63707;52.212;9.540;2023-11-21T02:50:32;99489.94;;;6.31;100.00
75136;BME280;63707;52.212;9.540;2023-11-21T02:52:58;99491.59;;;6.32;100.00
75136;BME280;63707;52.212;9.540;2023-11-21T02:55:25;99501.22;;;6.35;100.00
75136;BME280;63707;52.212;9.540;2023-11-21T02:57:52;99497.28;;;6.37;100.00
75136;BME280;63707;52.212;9.540;2023-11-21T03:00:18;99504.81;;;6.42;100.00
75136;BME280;63707;52.212;9.540;2023-11-21T03:02:43;99502.50;;;6.39;100.00
75136;BME280;63707;52.212;9.540;2023-11-21T03:05:09;99497.91;;;6.39;100.00
75136;BME280;63707;52.212;9.540;2023-11-21T03:07:36;99505.91;;;6.47;100.00
75136;BME280;63707;52.212;9.540;2023-11-21T03:10:01;99507.97;;;6.45;100.00
75136;BME280;63707;52.212;9.540;2023-11-21T03:12:27;99514.59;;;6.43;100.00
75136;BME280;63707;52.212;9.540;2023-11-21T03:14:54;99517.56;;;6.48;100.00
75136;BME280;63707;52.212;9.540;2023-11-21T03:17:19;99520.03;;;6.43;100.00
75136;BME280;63707;52.212;9.540;2023-11-21T03:19:45;99516.09;;;6.45;100.00
75136;BME280;63707;52.212;9.540;2023-11-21T03:22:10;99521.06;;;6.42;100.00
75136;BME280;63707;52.212;9.540;2023-11-21T03:24:37;99523.19;;;6.46;100.00
75136;BME280;63707;52.212;9.540;2023-11-21T03:27:03;99529.88;;;6.50;100.00
75136;BME280;63707;52.212;9.540;2023-11-21T03:29:29;99530.06;;;6.49;100.00
75136;BME280;63707;52.212;9.540;2023-11-21T03:31:56;99528.84;;;6.51;100.00
75136;BME280;63707;52.212;9.540;2023-11-21T03:34:24;99530.91;;;6.49;100.00
75136;BME280;63707;52.212;9.540;2023-11-21T03:36:50;99535.47;;;6.49;100.00
75136;BME280;63707;52.212;9.540;2023-11-21T03:39:15;99541.72;;;6.49;100.00
75136;BME280;63707;52.212;9.540;2023-11-21T03:41:41;99545.84;;;6.45;100.00
75136;BME280;63707;52.212;9.540;2023-11-21T03:44:06;99540.91;;;6.49;100.00
75136;BME280;63707;52.212;9.540;2023-11-21T03:46:32;99549.59;;;6.44;100.00
75136;BME280;63707;52.212;9.540;2023-11-21T03:48:58;99547.72;;;6.45;100.00
75136;BME280;63707;52.212;9.540;2023-11-21T03:51:24;99543.34;;;6.44;100.00
75136;BME280;63707;52.212;9.540;2023-11-21T03:53:49;99539.22;;;6.48;100.00
75136;BME280;63707;52.212;9.540;2023-11-21T03:56:15;99542.31;;;6.45;100.00
75136;BME280;63707;52.212;9.540;2023-11-21T03:58:40;99538.00;;;6.50;100.00
75136;BME280;63707;52.212;9.540;2023-11-21T04:01:06;99540.06;;;6.48;100.00
75136;BME280;63707;52.212;9.540;2023-11-21T04:03:32;99541.53;;;6.51;100.00
75136;BME280;63707;52.212;9.540;2023-11-21T04:05:58;99545.41;;;6.42;100.00
75136;BME280;63707;52.212;9.540;2023-11-21T04:08:24;99548.81;;;6.50;100.00
75136;BME280;63707;52.212;9.540;2023-11-21T04:10:51;99545.66;;;6.47;100.00
75136;BME280;63707;52.212;9.540;2023-11-21T04:13:18;99551.06;;;6.47;100.00
75136;BME280;63707;52.212;9.540;2023-11-21T04:15:44;99552.75;;;6.48;100.00
75136;BME280;63707;52.212;9.540;2023-11-21T04:18:09;99558.22;;;6.54;100.00
75136;BME280;63707;52.212;9.540;2023-11-21T04:20:35;99559.66;;;6.50;100.00
75136;BME280;63707;52.212;9.540;2023-11-21T04:23:02;99561.91;;;6.47;100.00
75136;BME280;63707;52.212;9.540;2023-11-21T04:25:28;99562.34;;;6.50;100.00
75136;BME280;63707;52.212;9.540;2023-11-21T04:27:54;99567.38;;;6.53;100.00
75136;BME280;63707;52.212;9.540;2023-11-21T04:30:19;99570.53;;;6.57;100.00
75136;BME280;63707;52.212;9.540;2023-11-21T04:32:46;99574.09;;;6.57;100.00
75136;BME280;63707;52.212;9.540;2023-11-21T04:35:11;99577.16;;;6.54;100.00
75136;BME280;63707;52.212;9.540;2023-11-21T04:37:37;99575.88;;;6.50;100.00
75136;BME280;63707;52.212;9.540;2023-11-21T04:40:05;99578.66;;;6.57;100.00
75136;BME280;63707;52.212;9.540;2023-11-21T04:42:34;99580.13;;;6.59;100.00
75136;BME280;63707;52.212;9.540;2023-11-21T04:45:01;99581.56;;;6.55;100.00
75136;BME280;63707;52.212;9.540;2023-11-21T04:47:26;99591.09;;;6.51;100.00
75136;BME280;63707;52.212;9.540;2023-11-21T04:49:52;99593.03;;;6.57;100.00
75136;BME280;63707;52.212;9.540;2023-11-21T04:52:17;99591.94;;;6.52;100.00
75136;BME280;63707;52.212;9.540;2023-11-21T04:54:43;99603.53;;;6.46;100.00
75136;BME280;63707;52.212;9.540;2023-11-21T04:57:10;99605.28;;;6.53;100.00
75136;BME280;63707;52.212;9.540;2023-11-21T04:59:35;99600.22;;;6.86;100.00
75136;BME280;63707;52.212;9.540;2023-11-21T05:02:01;99599.38;;;6.86;100.00
75136;BME280;63707;52.212;9.540;2023-11-21T05:04:26;99607.38;;;6.73;100.00
75136;BME280;63707;52.212;9.540;2023-11-21T05:06:52;99606.38;;;6.59;100.00
75136;BME280;63707;52.212;9.540;2023-11-21T05:09:17;99612.16;;;6.56;100.00
75136;BME280;63707;52.212;9.540;2023-11-21T05:11:43;99603.78;;;6.51;100.00
75136;BME280;63707;52.212;9.540;2023-11-21T05:14:10;99605.44;;;6.67;100.00
75136;BME280;63707;52.212;9.540;2023-11-21T05:16:35;99611.78;;;6.59;100.00
75136;BME280;63707;52.212;9.540;2023-11-21T05:19:01;99610.28;;;6.56;100.00
75136;BME280;63707;52.212;9.540;2023-11-21T05:21:27;99614.88;;;6.56;100.00
75136;BME280;63707;52.212;9.540;2023-11-21T05:23:53;99621.78;;;6.58;100.00
75136;BME280;63707;52.212;9.540;2023-11-21T05:26:19;99615.72;;;6.56;100.00
75136;BME280;63707;52.212;9.540;2023-11-21T05:28:44;99620.28;;;6.56;100.00
75136;BME280;63707;52.212;9.540;2023-11-21T05:31:11;99621.06;;;6.50;100.00
75136;BME280;63707;52.212;9.540;2023-11-21T05:33:36;99630.66;;;6.52;100.00
75136;BME280;63707;52.212;9.540;2023-11-21T05:36:02;99626.53;;;6.56;100.00
75136;BME280;63707;52.212;9.540;2023-11-21T05:38:28;99623.19;;;6.54;100.00
75136;BME280;63707;52.212;9.540;2023-11-21T05:40:53;99623.19;;;6.54;100.00
75136;BME280;63707;52.212;9.540;2023-11-21T05:43:19;99627.19;;;6.58;100.00
75136;BME280;63707;52.212;9.540;2023-11-21T05:45:45;99623.19;;;6.54;100.00
75136;BME280;63707;52.212;9.540;2023-11-21T05:48:12;99628.88;;;6.59;100.00
75136;BME280;63707;52.212;9.540;2023-11-21T05:50:37;99631.38;;;6.61;100.00
75136;BME280;63707;52.212;9.540;2023-11-21T05:53:03;99638.41;;;6.55;100.00
75136;BME280;63707;52.212;9.540;2023-11-21T05:55:29;99637.38;;;6.56;100.00
75136;BME280;63707;52.212;9.540;2023-11-21T05:57:54;99643.81;;;6.55;100.00
75136;BME280;63707;52.212;9.540;2023-11-21T06:00:20;99645.28;;;6.58;100.00
75136;BME280;63707;52.212;9.540;2023-11-21T06:02:51;99644.88;;;6.76;100.00
75136;BME280;63707;52.212;9.540;2023-11-21T06:05:21;99644.50;;;6.79;100.00
75136;BME280;63707;52.212;9.540;2023-11-21T06:07:48;99647.59;;;6.76;100.00
75136;BME280;63707;52.212;9.540;2023-11-21T06:10:14;99651.66;;;6.86;100.00
75136;BME280;63707;52.212;9.540;2023-11-21T06:12:40;99655.22;;;6.87;100.00
75136;BME280;63707;52.212;9.540;2023-11-21T06:15:09;99656.44;;;6.84;100.00
75136;BME280;63707;52.212;9.540;2023-11-21T06:17:37;99661.59;;;6.79;100.00
75136;BME280;63707;52.212;9.540;2023-11-21T06:20:05;99662.22;;;6.81;100.00
75136;BME280;63707;52.212;9.540;2023-11-21T06:22:36;99670.47;;;6.73;100.00
75136;BME280;63707;52.212;9.540;2023-11-21T06:25:01;99674.03;;;6.74;100.00
75136;BME280;63707;52.212;9.540;2023-11-21T06:27:28;99671.78;;;6.77;100.00
75136;BME280;63707;52.212;9.540;2023-11-21T06:29:54;99673.66;;;6.77;100.00
75136;BME280;63707;52.212;9.540;2023-11-21T06:32:20;99682.72;;;6.69;100.00
75136;BME280;63707;52.212;9.540;2023-11-21T06:34:47;99681.50;;;6.72;100.00
75136;BME280;63707;52.212;9.540;2023-11-21T06:37:13;99688.13;;;6.69;100.00
75136;BME280;63707;52.212;9.540;2023-11-21T06:39:40;99684.97;;;6.66;100.00
75136;BME280;63707;52.212;9.540;2023-11-21T06:42:05;99695.03;;;6.72;100.00
75136;BME280;63707;52.212;9.540;2023-11-21T06:44:31;99690.66;;;6.71;100.00
75136;BME280;63707;52.212;9.540;2023-11-21T06:46:58;99701.81;;;6.82;100.00
75136;BME280;63707;52.212;9.540;2023-11-21T06:49:24;99704.84;;;6.73;100.00
75136;BME280;63707;52.212;9.540;2023-11-21T06:51:50;99713.03;;;6.79;100.00
75136;BME280;63707;52.212;9.540;2023-11-21T06:54:15;99712.66;;;6.82;100.00
75136;BME280;63707;52.212;9.540;2023-11-21T06:56:42;99724.78;;;6.86;100.00
75136;BME280;63707;52.212;9.540;2023-11-21T06:59:07;99729.34;;;6.86;100.00
75136;BME280;63707;52.212;9.540;2023-11-21T07:01:34;99732.06;;;6.86;100.00
75136;BME280;63707;52.212;9.540;2023-11-21T07:04:04;99740.19;;;6.86;100.00
75136;BME280;63707;52.212;9.540;2023-11-21T07:06:30;99744.13;;;6.83;100.00
75136;BME280;63707;52.212;9.540;2023-11-21T07:08:55;99750.38;;;6.84;100.00
75136;BME280;63707;52.212;9.540;2023-11-21T07:11:21;99755.41;;;6.87;100.00
75136;BME280;63707;52.212;9.540;2023-11-21T07:13:48;99758.50;;;6.84;100.00
75136;BME280;63707;52.212;9.540;2023-11-21T07:16:13;99762.50;;;6.88;100.00
75136;BME280;63707;52.212;9.540;2023-11-21T07:18:40;99760.63;;;6.88;100.00
75136;BME280;63707;52.212;9.540;2023-11-21T07:21:06;99764.75;;;6.84;100.00
75136;BME280;63707;52.212;9.540;2023-11-21T07:23:31;99770.16;;;6.84;100.00
75136;BME280;63707;52.212;9.540;2023-11-21T07:25:57;99762.59;;;6.94;100.00
75136;BME280;63707;52.212;9.540;2023-11-21T07:28:24;99774.63;;;6.92;100.00
75136;BME280;63707;52.212;9.540;2023-11-21T07:30:52;99767.91;;;6.88;100.00
75136;BME280;63707;52.212;9.540;2023-11-21T07:33:17;99768.38;;;6.91;100.00
75136;BME280;63707;52.212;9.540;2023-11-21T07:35:43;99786.69;;;6.89;100.00
75136;BME280;63707;52.212;9.540;2023-11-21T07:38:09;99786.97;;;6.94;100.00
75136;BME280;63707;52.212;9.540;2023-11-21T07:40:34;99789.97;;;6.85;100.00
75136;BME280;63707;52.212;9.540;2023-11-21T07:42:59;99798.16;;;6.91;100.00
75136;BME280;63707;52.212;9.540;2023-11-21T07:45:25;99791.81;;;6.99;100.00
75136;BME280;63707;52.212;9.540;2023-11-21T07:47:54;99803.22;;;6.94;100.00
75136;BME280;63707;52.212;9.540;2023-11-21T07:50:20;99805.25;;;6.92;100.00
75136;BME280;63707;52.212;9.540;2023-11-21T07:52:46;99800.13;;;6.98;100.00
75136;BME280;63707;52.212;9.540;2023-11-21T07:55:12;99808.06;;;6.99;100.00
75136;BME280;63707;52.212;9.540;2023-11-21T07:57:39;99812.63;;;6.99;100.00
75136;BME280;63707;52.212;9.540;2023-11-21T08:00:06;99826.09;;;6.92;100.00
75136;BME280;63707;52.212;9.540;2023-11-21T08:02:34;99837.03;;;6.84;100.00
75136;BME280;63707;52.212;9.540;2023-11-21T08:05:01;99835.81;;;6.57;100.00
75136;BME280;63707;52.212;9.540;2023-11-21T08:07:26;99848.97;;;6.60;100.00
75136;BME280;63707;52.212;9.540;2023-11-21T08:09:52;99861.91;;;6.35;100.00
75136;BME280;63707;52.212;9.540;2023-11-21T08:12:18;99865.44;;;6.21;100.00
75136;BME280;63707;52.212;9.540;2023-11-21T08:14:45;99869.53;;;6.17;100.00
75136;BME280;63707;52.212;9.540;2023-11-21T08:17:11;99874.03;;;6.02;100.00
75136;BME280;63707;52.212;9.540;2023-11-21T08:19:36;99890.19;;;6.10;100.00
75136;BME280;63707;52.212;9.540;2023-11-21T08:22:03;99889.81;;;6.13;100.00
75136;BME280;63707;52.212;9.540;2023-11-21T08:24:29;99901.31;;;6.15;100.00
75136;BME280;63707;52.212;9.540;2023-11-21T08:26:55;99891.75;;;6.04;100.00
75136;BME280;63707;52.212;9.540;2023-11-21T08:29:21;99893.09;;;6.08;100.00
75136;BME280;63707;52.212;9.540;2023-11-21T08:31:48;99901.31;;;5.92;100.00
75136;BME280;63707;52.212;9.540;2023-11-21T08:34:14;99902.84;;;5.94;100.00
75136;BME280;63707;52.212;9.540;2023-11-21T08:36:42;99898.44;;;5.93;100.00
75136;BME280;63707;52.212;9.540;2023-11-21T08:39:09;99902.66;;;5.96;100.00
75136;BME280;63707;52.212;9.540;2023-11-21T08:41:38;99905.34;;;5.96;100.00
75136;BME280;63707;52.212;9.540;2023-11-21T08:44:04;99908.72;;;5.98;100.00
75136;BME280;63707;52.212;9.540;2023-11-21T08:46:32;99913.91;;;5.77;100.00
75136;BME280;63707;52.212;9.540;2023-11-21T08:48:58;99916.78;;;5.75;100.00
75136;BME280;63707;52.212;9.540;2023-11-21T08:51:24;99912.91;;;5.78;100.00
75136;BME280;63707;52.212;9.540;2023-11-21T08:53:50;99916.44;;;5.78;100.00
75136;BME280;63707;52.212;9.540;2023-11-21T08:56:17;99918.47;;;5.76;100.00
75136;BME280;63707;52.212;9.540;2023-11-21T08:58:45;99926.78;;;5.75;100.00
75136;BME280;63707;52.212;9.540;2023-11-21T09:01:12;99927.25;;;5.78;100.00
75136;BME280;63707;52.212;9.540;2023-11-21T09:03:37;99926.50;;;5.92;100.00
75136;BME280;63707;52.212;9.540;2023-11-21T09:06:03;99933.72;;;6.00;100.00
75136;BME280;63707;52.212;9.540;2023-11-21T09:08:29;99938.16;;;5.93;100.00
75136;BME280;63707;52.212;9.540;2023-11-21T09:10:55;99942.56;;;5.94;100.00
75136;BME280;63707;52.212;9.540;2023-11-21T09:13:22;99952.16;;;5.96;100.00
75136;BME280;63707;52.212;9.540;2023-11-21T09:15:49;99956.00;;;6.02;100.00
75136;BME280;63707;52.212;9.540;2023-11-21T09:18:15;99952.22;;;6.11;100.00
75136;BME280;63707;52.212;9.540;2023-11-21T09:20:40;99951.81;;;5.99;100.00
75136;BME280;63707;52.212;9.540;2023-11-21T09:23:06;99959.50;;;6.11;100.00
75136;BME280;63707;52.212;9.540;2023-11-21T09:25:32;99965.06;;;6.17;100.00
75136;BME280;63707;52.212;9.540;2023-11-21T09:27:58;99974.72;;;6.12;100.00
75136;BME280;63707;52.212;9.540;2023-11-21T09:30:24;99978.91;;;6.14;100.00
75136;BME280;63707;52.212;9.540;2023-11-21T09:32:50;99980.28;;;6.10;100.00
75136;BME280;63707;52.212;9.540;2023-11-21T09:35:16;99980.00;;;6.05;100.00
75136;BME280;63707;52.212;9.540;2023-11-21T09:37:43;99991.06;;;5.87;100.00
75136;BME280;63707;52.212;9.540;2023-11-21T09:40:10;100003.75;;;5.87;100.00
75136;BME280;63707;52.212;9.540;2023-11-21T09:42:40;100001.09;;;5.79;100.00
75136;BME280;63707;52.212;9.540;2023-11-21T09:45:15;100007.19;;;5.73;100.00
75136;BME280;63707;52.212;9.540;2023-11-21T09:47:46;100017.44;;;5.85;100.00
75136;BME280;63707;52.212;9.540;2023-11-21T09:50:17;100024.88;;;5.83;100.00
75136;BME280;63707;52.212;9.540;2023-11-21T09:52:55;100019.00;;;5.80;100.00
75136;BME280;63707;52.212;9.540;2023-11-21T09:55:24;100025.94;;;5.74;100.00
75136;BME280;63707;52.212;9.540;2023-11-21T09:57:52;100030.53;;;5.65;100.00
75136;BME280;63707;52.212;9.540;2023-11-21T10:00:19;100032.91;;;5.68;100.00
75136;BME280;63707;52.212;9.540;2023-11-21T10:02:47;100053.34;;;5.71;100.00
75136;BME280;63707;52.212;9.540;2023-11-21T10:05:15;100047.31;;;5.53;100.00
75136;BME280;63707;52.212;9.540;2023-11-21T10:07:43;100046.13;;;5.47;100.00
75136;BME280;63707;52.212;9.540;2023-11-21T10:10:10;100048.84;;;5.47;100.00
75136;BME280;63707;52.212;9.540;2023-11-21T10:12:35;100048.81;;;5.55;100.00
75136;BME280;63707;52.212;9.540;2023-11-21T10:15:03;100053.91;;;5.50;100.00
75136;BME280;63707;52.212;9.540;2023-11-21T10:17:31;100047.44;;;5.59;100.00
75136;BME280;63707;52.212;9.540;2023-11-21T10:20:07;100054.00;;;5.73;100.00
75136;BME280;63707;52.212;9.540;2023-11-21T10:22:39;100052.50;;;5.71;100.00
75136;BME280;63707;52.212;9.540;2023-11-21T10:25:07;100055.19;;;5.71;100.00
75136;BME280;63707;52.212;9.540;2023-11-21T10:27:33;100059.22;;;5.75;100.00
75136;BME280;63707;52.212;9.540;2023-11-21T10:30:00;100060.25;;;5.74;100.00
75136;BME280;63707;52.212;9.540;2023-11-21T10:32:28;100068.38;;;5.74;100.00
75136;BME280;63707;52.212;9.540;2023-11-21T10:34:56;100067.69;;;5.72;100.00
75136;BME280;63707;52.212;9.540;2023-11-21T10:37:24;100071.41;;;5.71;100.00
75136;BME280;63707;52.212;9.540;2023-11-21T10:39:50;100071.03;;;5.90;100.00
75136;BME280;63707;52.212;9.540;2023-11-21T10:42:17;100081.72;;;5.75;100.00
75136;BME280;63707;52.212;9.540;2023-11-21T10:44:43;100084.41;;;5.75;100.00
75136;BME280;63707;52.212;9.540;2023-11-21T10:47:11;100082.88;;;5.81;100.00
75136;BME280;63707;52.212;9.540;2023-11-21T10:49:37;100095.88;;;5.77;100.00
75136;BME280;63707;52.212;9.540;2023-11-21T10:52:03;100089.09;;;5.89;100.00
75136;BME280;63707;52.212;9.540;2023-11-21T10:54:30;100094.50;;;5.89;100.00
75136;BME280;63707;52.212;9.540;2023-11-21T10:56:57;100095.03;;;5.77;100.00
75136;BME280;63707;52.212;9.540;2023-11-21T10:59:26;100099.44;;;5.78;100.00
75136;BME280;63707;52.212;9.540;2023-11-21T11:01:54;100105.19;;;5.75;100.00
75136;BME280;63707;52.212;9.540;2023-11-21T11:04:22;100108.03;;;5.89;100.00
75136;BME280;63707;52.212;9.540;2023-11-21T11:06:53;100113.22;;;5.99;100.00
75136;BME280;63707;52.212;9.540;2023-11-21T11:09:19;100106.66;;;5.93;100.00
75136;BME280;63707;52.212;9.540;2023-11-21T11:11:47;100106.31;;;5.96;100.00
75136;BME280;63707;52.212;9.540;2023-11-21T11:14:14;100116.75;;;6.08;100.00
75136;BME280;63707;52.212;9.540;2023-11-21T11:16:40;100117.13;;;5.96;100.00
75136;BME280;63707;52.212;9.540;2023-11-21T11:19:09;100121.22;;;5.84;100.00
75136;BME280;63707;52.212;9.540;2023-11-21T11:21:43;100123.06;;;5.84;100.00
75136;BME280;63707;52.212;9.540;2023-11-21T11:24:20;100119.16;;;5.86;100.00
75136;BME280;63707;52.212;9.540;2023-11-21T11:26:58;100122.22;;;5.91;100.00
75136;BME280;63707;52.212;9.540;2023-11-21T11:29:33;100121.88;;;5.86;100.00
75136;BME280;63707;52.212;9.540;2023-11-21T11:32:08;100123.06;;;5.92;100.00
75136;BME280;63707;52.212;9.540;2023-11-21T11:34:35;100124.00;;;6.15;100.00
75136;BME280;63707;52.212;9.540;2023-11-21T11:37:06;100131.41;;;6.21;100.00
75136;BME280;63707;52.212;9.540;2023-11-21T11:39:36;100142.19;;;6.29;100.00
75136;BME280;63707;52.212;9.540;2023-11-21T11:42:05;100142.06;;;6.23;100.00
75136;BME280;63707;52.212;9.540;2023-11-21T11:44:51;100145.03;;;6.36;100.00
75136;BME280;63707;52.212;9.540;2023-11-21T11:47:21;100142.44;;;6.43;100.00
75136;BME280;63707;52.212;9.540;2023-11-21T11:50:00;100157.44;;;6.53;100.00
75136;BME280;63707;52.212;9.540;2023-11-21T11:52:40;100148.13;;;6.56;100.00
75136;BME280;63707;52.212;9.540;2023-11-21T11:55:08;100147.34;;;6.47;100.00
75136;BME280;63707;52.212;9.540;2023-11-21T11:57:37;100153.94;;;6.45;100.00
75136;BME280;63707;52.212;9.540;2023-11-21T12:00:08;100151.59;;;6.42;100.00
75136;BME280;63707;52.212;9.540;2023-11-21T12:02:37;100159.59;;;6.35;100.00
75136;BME280;63707;52.212;9.540;2023-11-21T12:05:08;100157.81;;;6.19;100.00
75136;BME280;63707;52.212;9.540;2023-11-21T12:07:42;100169.66;;;6.18;100.00
75136;BME280;63707;52.212;9.540;2023-11-21T12:10:11;100170.31;;;6.20;100.00
75136;BME280;63707;52.212;9.540;2023-11-21T12:12:42;100166.72;;;6.28;100.00
75136;BME280;63707;52.212;9.540;2023-11-21T12:15:08;100176.00;;;6.34;100.00
75136;BME280;63707;52.212;9.540;2023-11-21T12:17:34;100179.41;;;6.27;100.00
75136;BME280;63707;52.212;9.540;2023-11-21T12:20:02;100177.28;;;6.46;100.00
75136;BME280;63707;52.212;9.540;2023-11-21T12:22:29;100185.34;;;6.15;100.00
75136;BME280;63707;52.212;9.540;2023-11-21T12:24:56;100190.31;;;6.42;100.00
75136;BME280;63707;52.212;9.540;2023-11-21T12:27:21;100186.78;;;6.42;100.00
75136;BME280;63707;52.212;9.540;2023-11-21T12:29:48;100199.59;;;6.48;100.00
75136;BME280;63707;52.212;9.540;2023-11-21T12:32:14;100190.84;;;6.38;100.00
75136;BME280;63707;52.212;9.540;2023-11-21T12:34:43;100208.13;;;6.37;100.00
75136;BME280;63707;52.212;9.540;2023-11-21T12:37:09;100201.59;;;6.23;100.00
75136;BME280;63707;52.212;9.540;2023-11-21T12:39:35;100196.91;;;6.48;100.00
75136;BME280;63707;52.212;9.540;2023-11-21T12:42:01;100202.75;;;6.28;100.00
75136;BME280;63707;52.212;9.540;2023-11-21T12:44:27;100206.00;;;6.55;100.00
75136;BME280;63707;52.212;9.540;2023-11-21T12:46:54;100209.06;;;6.52;100.00
75136;BME280;63707;52.212;9.540;2023-11-21T12:49:23;100217.91;;;6.38;100.00
75136;BME280;63707;52.212;9.540;2023-11-21T12:51:49;100215.88;;;6.40;100.00
75136;BME280;63707;52.212;9.540;2023-11-21T12:54:15;100225.34;;;6.44;100.00
75136;BME280;63707;52.212;9.540;2023-11-21T12:56:41;100228.22;;;6.42;100.00